Time;durP1;ratioP1;P1;durP2;ratioP2;P2;SDS_P1;SDS_P2;PMS_P1;PMS_P2;Temp;Humidity;BMP_temperature;BMP_pressure;BME280_temperature;BME280_humidity;BME280_pressure;Samples;Min_cycle;Max_cycle;Signal;HPM_P1;HPM_P2
2021/07/03 00:02:14;;;;;;;2.85;1.83;;;27.70;48.50;;;;;;5082692;28;20036;-59
2021/07/03 00:04:41;;;;;;;2.40;1.58;;;27.70;48.30;;;;;;5079691;28;20024;-52
2021/07/03 00:07:07;;;;;;;2.05;1.60;;;27.70;48.20;;;;;;5082206;28;20486;-54
2021/07/03 00:09:34;;;;;;;2.20;1.50;;;27.70;48.10;;;;;;5063228;28;20028;-54
2021/07/03 00:12:02;;;;;;;3.47;1.95;;;27.70;48.10;;;;;;5084166;28;20020;-58
2021/07/03 00:14:31;;;;;;;2.67;1.80;;;27.70;48.00;;;;;;5084290;28;20521;-58
2021/07/03 00:16:57;;;;;;;2.70;1.65;;;27.70;48.00;;;;;;5083670;28;20016;-53
2021/07/03 00:19:22;;;;;;;3.10;1.88;;;27.70;47.90;;;;;;5082988;28;20438;-57
2021/07/03 00:21:48;;;;;;;2.40;1.73;;;27.70;48.30;;;;;;5079875;28;20043;-52
2021/07/03 00:24:13;;;;;;;2.13;1.52;;;27.80;47.80;;;;;;5084321;28;20036;-59
2021/07/03 00:26:39;;;;;;;2.47;1.70;;;27.80;47.90;;;;;;5084000;28;20059;-57
2021/07/03 00:29:04;;;;;;;2.40;1.80;;;27.80;47.80;;;;;;5084977;28;20344;-57
2021/07/03 00:31:30;;;;;;;2.55;1.95;;;27.80;47.70;;;;;;5070986;28;20040;-58
2021/07/03 00:33:56;;;;;;;2.38;1.75;;;27.80;47.60;;;;;;5048682;28;20044;-59
2021/07/03 00:36:22;;;;;;;2.22;1.63;;;27.80;47.60;;;;;;5063384;28;20020;-54
2021/07/03 00:38:48;;;;;;;2.42;1.65;;;27.80;47.50;;;;;;5064645;28;20082;-59
2021/07/03 00:41:13;;;;;;;3.47;1.70;;;27.80;47.50;;;;;;5064289;28;20467;-58
2021/07/03 00:43:39;;;;;;;3.03;1.70;;;27.90;47.50;;;;;;5048340;28;20032;-55
2021/07/03 00:46:05;;;;;;;2.88;1.67;;;27.80;47.40;;;;;;5060491;28;20307;-55
2021/07/03 00:48:30;;;;;;;1.90;1.50;;;27.90;47.40;;;;;;5058722;28;20121;-53
2021/07/03 00:50:57;;;;;;;2.40;1.50;;;27.90;47.30;;;;;;5064166;28;20047;-58
2021/07/03 00:53:23;;;;;;;2.85;1.90;;;27.90;47.40;;;;;;5060657;28;20332;-54
2021/07/03 00:55:51;;;;;;;2.97;1.77;;;27.90;47.50;;;;;;5063336;28;20178;-55
2021/07/03 00:58:17;;;;;;;2.50;1.70;;;27.90;47.40;;;;;;5062324;28;20024;-58
2021/07/03 01:00:43;;;;;;;2.10;1.60;;;27.90;47.30;;;;;;5062932;28;20039;-56
2021/07/03 01:03:08;;;;;;;2.55;1.65;;;27.90;47.80;;;;;;5060126;28;20032;-57
2021/07/03 01:05:34;;;;;;;2.50;1.77;;;27.90;47.30;;;;;;5060037;28;20032;-57
2021/07/03 01:08:00;;;;;;;3.03;1.75;;;27.90;47.20;;;;;;5062522;28;20123;-59
2021/07/03 01:10:28;;;;;;;2.20;1.63;;;27.90;47.10;;;;;;5064859;28;20411;-58
2021/07/03 01:12:54;;;;;;;2.45;1.80;;;27.90;47.20;;;;;;5055079;28;20033;-60
2021/07/03 01:15:20;;;;;;;2.10;1.50;;;27.90;47.10;;;;;;5063877;28;20117;-57
2021/07/03 01:17:46;;;;;;;2.05;1.50;;;28.00;47.20;;;;;;5062101;28;20139;-58
2021/07/03 01:20:13;;;;;;;2.17;1.60;;;28.00;47.20;;;;;;5062831;28;20051;-57
2021/07/03 01:22:40;;;;;;;2.72;1.70;;;28.00;47.10;;;;;;5036946;28;20026;-58
2021/07/03 01:25:07;;;;;;;2.20;1.50;;;28.00;47.10;;;;;;5042469;28;20078;-56
2021/07/03 01:27:32;;;;;;;2.22;1.55;;;28.00;46.90;;;;;;5058347;28;20098;-56
2021/07/03 01:29:59;;;;;;;2.33;1.60;;;28.00;46.90;;;;;;5062994;28;20503;-54
2021/07/03 01:32:25;;;;;;;2.45;1.70;;;28.00;46.90;;;;;;5058636;28;20087;-55
2021/07/03 01:34:50;;;;;;;2.08;1.60;;;28.00;46.80;;;;;;5061165;28;20020;-54
2021/07/03 01:37:17;;;;;;;2.35;1.80;;;28.00;46.80;;;;;;5059770;28;20037;-58
2021/07/03 01:39:42;;;;;;;1.60;1.30;;;28.00;46.70;;;;;;5063005;28;20035;-59
2021/07/03 01:42:08;;;;;;;2.75;1.60;;;28.00;46.70;;;;;;5062095;28;20029;-59
2021/07/03 01:44:34;;;;;;;2.03;1.55;;;28.00;46.70;;;;;;5061613;28;20047;-57
2021/07/03 01:47:02;;;;;;;1.95;1.42;;;28.00;46.60;;;;;;5054327;28;20052;-56
2021/07/03 01:49:36;;;;;;;1.67;1.45;;;28.00;47.20;;;;;;5056240;28;20040;-53
2021/07/03 01:52:02;;;;;;;2.22;1.60;;;28.00;46.60;;;;;;5056032;28;20424;-54
2021/07/03 01:54:28;;;;;;;2.17;1.70;;;28.00;46.80;;;;;;5065518;28;20032;-55
2021/07/03 01:56:59;;;;;;;2.30;1.60;;;28.00;46.40;;;;;;5064312;28;20063;-57
2021/07/03 01:59:27;;;;;;;1.88;1.50;;;27.90;46.20;;;;;;5061228;28;20032;-56
2021/07/03 02:01:55;;;;;;;2.40;1.58;;;27.90;46.90;;;;;;5072166;28;20436;-58
2021/07/03 02:04:21;;;;;;;1.88;1.42;;;27.80;46.40;;;;;;5084583;28;20381;-59
2021/07/03 02:06:47;;;;;;;2.13;1.60;;;27.80;46.40;;;;;;5085411;28;20043;-54
2021/07/03 02:09:14;;;;;;;2.10;1.60;;;27.70;46.40;;;;;;5087268;28;20120;-52
2021/07/03 02:11:40;;;;;;;2.17;1.55;;;27.70;46.50;;;;;;5086232;28;20447;-53
2021/07/03 02:14:05;;;;;;;2.58;1.67;;;27.70;46.60;;;;;;5084576;28;20039;-56
2021/07/03 02:16:31;;;;;;;2.13;1.60;;;27.60;46.50;;;;;;5088179;28;20032;-54
2021/07/03 02:18:56;;;;;;;2.15;1.60;;;27.60;46.60;;;;;;5103965;28;20023;-53
2021/07/03 02:21:22;;;;;;;2.38;1.60;;;27.60;46.60;;;;;;5105202;28;20493;-56
2021/07/03 02:23:47;;;;;;;1.60;1.40;;;27.50;46.60;;;;;;5083697;28;20104;-54
2021/07/03 02:26:13;;;;;;;1.83;1.40;;;27.50;46.70;;;;;;5086417;28;20043;-54
2021/07/03 02:28:39;;;;;;;1.90;1.50;;;27.50;46.70;;;;;;5083355;28;20047;-54
2021/07/03 02:31:05;;;;;;;2.53;1.60;;;27.40;46.70;;;;;;5084271;28;20409;-51
2021/07/03 02:33:31;;;;;;;2.40;1.70;;;27.40;46.70;;;;;;5083091;28;20524;-54
2021/07/03 02:35:57;;;;;;;2.20;1.40;;;27.40;46.80;;;;;;5085571;28;20042;-54
2021/07/03 02:38:22;;;;;;;2.40;1.70;;;27.30;46.80;;;;;;5083972;28;20028;-54
2021/07/03 02:40:48;;;;;;;2.00;1.60;;;27.30;46.80;;;;;;5093099;28;20056;-55
2021/07/03 02:43:14;;;;;;;2.00;1.50;;;27.30;46.90;;;;;;5093612;28;20105;-51
2021/07/03 02:45:39;;;;;;;2.42;1.50;;;27.20;46.90;;;;;;5076954;28;20097;-54
2021/07/03 02:48:05;;;;;;;2.53;1.80;;;27.20;46.90;;;;;;5082582;28;20043;-51
2021/07/03 02:50:31;;;;;;;2.45;1.77;;;27.20;47.00;;;;;;5085290;28;20032;-56
2021/07/03 02:52:56;;;;;;;2.17;1.70;;;27.10;46.90;;;;;;5081832;28;20036;-56
2021/07/03 02:55:22;;;;;;;2.20;1.70;;;27.10;47.00;;;;;;5083634;28;20024;-61
2021/07/03 02:57:48;;;;;;;1.88;1.45;;;27.10;47.10;;;;;;5082472;28;20040;-55
2021/07/03 03:00:16;;;;;;;1.98;1.67;;;27.00;47.10;;;;;;5079992;28;20514;-58
2021/07/03 03:02:41;;;;;;;2.58;1.73;;;27.00;47.10;;;;;;5082039;28;20111;-58
2021/07/03 03:05:09;;;;;;;2.58;1.60;;;27.00;47.20;;;;;;5082905;28;20605;-57
2021/07/03 03:07:35;;;;;;;2.28;1.75;;;26.90;47.10;;;;;;5083477;28;20024;-56
2021/07/03 03:10:01;;;;;;;2.00;1.60;;;26.90;47.10;;;;;;5085516;28;20078;-60
2021/07/03 03:12:26;;;;;;;1.95;1.60;;;26.90;47.20;;;;;;5068666;28;20051;-53
2021/07/03 03:14:52;;;;;;;2.03;1.48;;;26.90;47.20;;;;;;5082102;28;20051;-53
2021/07/03 03:17:18;;;;;;;2.25;1.60;;;26.80;47.20;;;;;;5083785;28;20044;-54
2021/07/03 03:19:43;;;;;;;2.17;1.55;;;26.80;47.20;;;;;;5081983;28;20032;-61
2021/07/03 03:22:09;;;;;;;1.95;1.50;;;26.80;47.30;;;;;;5087638;28;20080;-51
2021/07/03 03:24:34;;;;;;;2.28;1.60;;;26.80;47.30;;;;;;5084971;28;20036;-55
2021/07/03 03:27:00;;;;;;;2.00;1.70;;;26.80;47.40;;;;;;5083254;28;20055;-55
2021/07/03 03:29:26;;;;;;;2.25;1.52;;;26.70;47.30;;;;;;5084855;28;20102;-57
2021/07/03 03:31:51;;;;;;;2.13;1.55;;;26.70;47.40;;;;;;5081422;28;20040;-52
2021/07/03 03:34:17;;;;;;;2.05;1.50;;;26.70;47.40;;;;;;5064256;28;20359;-53
2021/07/03 03:36:42;;;;;;;2.15;1.50;;;26.60;47.40;;;;;;5082972;28;20254;-60
2021/07/03 03:39:08;;;;;;;2.03;1.50;;;26.60;47.40;;;;;;5083473;28;20025;-53
2021/07/03 03:41:34;;;;;;;3.10;1.73;;;26.60;47.50;;;;;;5085544;28;20451;-54
2021/07/03 03:43:59;;;;;;;2.05;1.50;;;26.60;47.50;;;;;;5085846;28;20028;-51
2021/07/03 03:46:25;;;;;;;1.92;1.60;;;26.50;47.50;;;;;;5087970;28;20093;-55
2021/07/03 03:48:50;;;;;;;1.90;1.40;;;26.50;47.60;;;;;;5087112;28;20129;-56
2021/07/03 03:51:16;;;;;;;2.50;1.70;;;26.50;47.70;;;;;;5086349;28;20485;-52
2021/07/03 03:53:42;;;;;;;2.00;1.50;;;26.40;47.60;;;;;;5086257;28;20028;-55
2021/07/03 03:56:09;;;;;;;1.90;1.38;;;26.40;47.70;;;;;;5087535;28;20028;-52
2021/07/03 03:58:34;;;;;;;2.20;1.60;;;26.40;47.70;;;;;;5085626;28;20024;-52
2021/07/03 04:01:00;;;;;;;2.00;1.50;;;26.40;47.70;;;;;;5088192;28;20039;-54
2021/07/03 04:03:25;;;;;;;1.85;1.33;;;26.30;47.70;;;;;;5089252;28;20050;-51
2021/07/03 04:05:51;;;;;;;2.08;1.50;;;26.30;47.70;;;;;;5092014;28;20036;-54
2021/07/03 04:08:17;;;;;;;1.95;1.50;;;26.30;47.70;;;;;;5086590;28;20036;-55
2021/07/03 04:10:42;;;;;;;2.33;1.60;;;26.30;47.80;;;;;;5090121;28;20036;-55
2021/07/03 04:13:08;;;;;;;2.28;1.58;;;26.20;48.20;;;;;;5087903;28;20367;-53
2021/07/03 04:15:33;;;;;;;2.75;1.77;;;26.20;47.80;;;;;;5089859;28;20458;-51
2021/07/03 04:17:59;;;;;;;2.28;1.60;;;26.20;47.80;;;;;;5087303;28;20107;-55
2021/07/03 04:20:25;;;;;;;1.90;1.40;;;26.20;47.80;;;;;;5089254;28;20031;-48
2021/07/03 04:22:50;;;;;;;1.77;1.38;;;26.20;47.90;;;;;;5084275;28;20515;-53
2021/07/03 04:25:19;;;;;;;1.80;1.40;;;26.10;47.80;;;;;;5085353;28;20505;-56
2021/07/03 04:27:45;;;;;;;1.98;1.50;;;26.10;47.90;;;;;;5086632;28;20028;-54
2021/07/03 04:30:11;;;;;;;1.73;1.33;;;26.10;47.90;;;;;;5069877;28;20367;-51
2021/07/03 04:32:37;;;;;;;2.20;1.50;;;26.10;47.90;;;;;;5086315;28;20059;-59
2021/07/03 04:35:04;;;;;;;2.20;1.60;;;26.10;47.90;;;;;;5094027;28;20024;-58
2021/07/03 04:37:29;;;;;;;2.10;1.60;;;26.10;48.00;;;;;;5088732;28;20032;-54
2021/07/03 04:39:55;;;;;;;2.03;1.60;;;26.00;47.90;;;;;;5089681;28;20020;-53
2021/07/03 04:42:21;;;;;;;2.40;1.60;;;26.00;47.90;;;;;;5094091;28;20036;-55
2021/07/03 04:44:46;;;;;;;2.00;1.50;;;26.00;47.90;;;;;;5090068;28;20052;-58
2021/07/03 04:47:12;;;;;;;2.20;1.60;;;26.00;48.00;;;;;;5087580;28;20028;-50
2021/07/03 04:49:38;;;;;;;2.38;1.50;;;26.00;48.00;;;;;;5089044;28;20084;-58
2021/07/03 04:52:04;;;;;;;1.80;1.50;;;26.00;48.00;;;;;;5087689;28;20047;-55
2021/07/03 04:54:29;;;;;;;2.30;1.70;;;25.90;48.00;;;;;;5086368;28;20023;-55
2021/07/03 04:57:06;;;;;;;1.80;1.58;;;25.90;48.00;;;;;;5087607;28;20051;-51
2021/07/03 04:59:37;;;;;;;2.42;1.52;;;25.90;48.00;;;;;;5083469;28;20046;-57
2021/07/03 05:02:04;;;;;;;2.08;1.40;;;25.90;48.00;;;;;;5076793;28;20043;-52
2021/07/03 05:04:30;;;;;;;1.92;1.50;;;25.90;48.00;;;;;;5064013;28;20525;-56
2021/07/03 05:06:56;;;;;;;1.70;1.50;;;25.80;48.00;;;;;;5087574;28;20055;-51
2021/07/03 05:09:22;;;;;;;1.80;1.50;;;25.90;48.10;;;;;;5088505;28;20070;-55
2021/07/03 05:11:47;;;;;;;2.45;1.60;;;25.80;48.00;;;;;;5087849;28;20028;-58
2021/07/03 05:14:13;;;;;;;1.77;1.40;;;25.80;48.00;;;;;;5086975;28;20062;-57
2021/07/03 05:16:38;;;;;;;2.33;1.73;;;25.80;48.00;;;;;;5092548;28;20027;-56
2021/07/03 05:19:04;;;;;;;2.05;1.60;;;25.70;48.00;;;;;;5093678;28;20024;-55
2021/07/03 05:21:29;;;;;;;1.85;1.45;;;25.80;48.10;;;;;;5092686;28;20031;-58
2021/07/03 05:23:55;;;;;;;1.98;1.40;;;25.70;48.00;;;;;;5095153;28;20059;-51
2021/07/03 05:26:21;;;;;;;2.25;1.65;;;25.70;48.00;;;;;;5092901;28;20134;-55
2021/07/03 05:28:46;;;;;;;2.00;1.60;;;25.70;48.10;;;;;;5086687;28;20036;-52
2021/07/03 05:31:12;;;;;;;2.17;1.75;;;25.70;48.10;;;;;;5087232;28;20415;-56
2021/07/03 05:33:37;;;;;;;2.15;1.60;;;25.70;48.10;;;;;;5085538;28;20036;-54
2021/07/03 05:36:03;;;;;;;2.33;1.70;;;25.70;48.10;;;;;;5095778;28;20105;-55
2021/07/03 05:38:29;;;;;;;1.58;1.33;;;25.70;48.10;;;;;;5086745;28;20512;-56
2021/07/03 05:41:00;;;;;;;2.65;1.70;;;25.60;48.10;;;;;;5105001;28;20024;-55
2021/07/03 05:43:27;;;;;;;2.00;1.50;;;25.60;48.10;;;;;;5090306;28;20140;-56
2021/07/03 05:45:53;;;;;;;2.00;1.52;;;25.60;48.60;;;;;;5087402;28;20024;-56
2021/07/03 05:48:18;;;;;;;2.08;1.60;;;25.60;48.10;;;;;;5085152;28;20490;-52
2021/07/03 05:50:44;;;;;;;1.90;1.50;;;25.60;48.10;;;;;;5094707;28;20054;-54
2021/07/03 05:53:10;;;;;;;3.03;1.60;;;25.60;48.10;;;;;;5093336;28;20504;-53
2021/07/03 05:55:35;;;;;;;1.80;1.40;;;25.60;48.10;;;;;;5092462;28;20027;-51
2021/07/03 05:58:01;;;;;;;2.03;1.55;;;25.60;48.10;;;;;;5091538;28;20190;-53
2021/07/03 06:00:26;;;;;;;2.00;1.60;;;25.60;48.20;;;;;;5087097;28;20478;-54
2021/07/03 06:02:52;;;;;;;2.10;1.50;;;25.60;48.20;;;;;;5083279;28;20103;-58
2021/07/03 06:05:18;;;;;;;2.15;1.50;;;25.50;48.10;;;;;;5087455;28;20478;-54
2021/07/03 06:07:43;;;;;;;2.15;1.50;;;25.50;48.10;;;;;;5093150;28;20103;-55
2021/07/03 06:10:10;;;;;;;2.45;1.52;;;25.50;48.10;;;;;;5091893;28;20036;-53
2021/07/03 06:12:36;;;;;;;1.95;1.60;;;25.50;48.10;;;;;;5093948;28;20390;-56
2021/07/03 06:15:02;;;;;;;2.28;1.60;;;25.50;48.10;;;;;;5072652;28;20494;-56
2021/07/03 06:17:28;;;;;;;2.55;2.10;;;25.50;48.10;;;;;;5079719;28;20030;-60
2021/07/03 06:19:54;;;;;;;3.33;2.45;;;25.50;47.40;;;;;;5096993;28;20031;-57
2021/07/03 06:22:19;;;;;;;3.90;2.13;;;25.40;47.30;;;;;;5071053;28;20031;-58
2021/07/03 06:24:46;;;;;;;3.40;2.22;;;25.40;47.20;;;;;;5085292;28;20039;-51
2021/07/03 06:27:12;;;;;;;4.25;2.45;;;25.30;46.80;;;;;;5086008;28;20046;-56
2021/07/03 06:29:38;;;;;;;4.75;3.30;;;25.30;46.40;;;;;;5084206;28;20032;-55
2021/07/03 06:32:05;;;;;;;5.20;3.22;;;25.10;45.70;;;;;;5090559;28;20382;-55
2021/07/03 06:34:31;;;;;;;4.75;3.40;;;25.10;46.00;;;;;;5088642;28;20355;-59
2021/07/03 06:36:57;;;;;;;3.50;2.95;;;25.00;45.90;;;;;;5087640;28;20455;-57
2021/07/03 06:39:23;;;;;;;4.82;2.78;;;25.00;46.10;;;;;;5089690;28;20096;-54
2021/07/03 06:41:48;;;;;;;3.95;2.70;;;25.00;46.10;;;;;;5086498;28;20074;-55
2021/07/03 06:44:14;;;;;;;4.20;3.10;;;25.00;46.10;;;;;;5089556;28;20043;-56
2021/07/03 06:46:40;;;;;;;3.90;3.38;;;25.10;46.20;;;;;;5085075;28;20048;-58
2021/07/03 06:49:05;;;;;;;3.80;2.80;;;25.00;46.30;;;;;;5086029;28;20036;-57
2021/07/03 06:51:31;;;;;;;3.40;2.80;;;25.00;46.50;;;;;;5093459;28;20096;-55
2021/07/03 06:54:00;;;;;;;3.42;2.80;;;25.00;46.50;;;;;;5086154;28;20138;-58
2021/07/03 06:56:26;;;;;;;4.47;2.80;;;24.90;46.60;;;;;;5087008;28;20032;-57
2021/07/03 06:58:52;;;;;;;3.47;2.67;;;24.90;46.70;;;;;;5083454;28;20139;-58
2021/07/03 07:01:18;;;;;;;4.85;3.22;;;24.90;47.00;;;;;;5080582;28;20265;-58
2021/07/03 07:03:43;;;;;;;3.97;3.17;;;24.90;47.00;;;;;;5090523;28;20032;-56
2021/07/03 07:06:09;;;;;;;3.90;3.25;;;24.80;47.30;;;;;;5086176;28;20557;-53
2021/07/03 07:08:34;;;;;;;3.70;2.90;;;24.70;47.60;;;;;;5093613;28;20393;-51
2021/07/03 07:11:00;;;;;;;4.75;3.17;;;24.60;47.80;;;;;;5088561;28;20035;-59
2021/07/03 07:13:26;;;;;;;3.08;2.63;;;24.60;47.70;;;;;;5082171;28;20040;-59
2021/07/03 07:15:51;;;;;;;3.20;2.58;;;24.70;47.80;;;;;;5083539;28;20036;-55
2021/07/03 07:18:17;;;;;;;4.00;3.05;;;24.70;47.70;;;;;;5083814;28;20776;-54
2021/07/03 07:20:42;;;;;;;3.55;2.58;;;24.70;47.80;;;;;;5085423;28;20395;-59
2021/07/03 07:23:08;;;;;;;4.28;3.20;;;24.70;47.70;;;;;;5081654;28;20105;-58
2021/07/03 07:25:34;;;;;;;3.63;2.80;;;24.70;47.80;;;;;;5092934;28;20032;-55
2021/07/03 07:27:59;;;;;;;3.50;2.95;;;24.70;47.80;;;;;;5082919;28;20701;-55
2021/07/03 07:30:25;;;;;;;3.58;2.90;;;24.70;47.80;;;;;;5103065;28;20112;-58
2021/07/03 07:32:51;;;;;;;3.95;2.80;;;24.80;47.80;;;;;;5062859;28;20068;-56
2021/07/03 07:35:16;;;;;;;3.15;2.72;;;24.70;47.80;;;;;;5084009;28;20032;-52
2021/07/03 07:37:43;;;;;;;4.07;2.72;;;24.70;47.80;;;;;;5089640;28;20038;-55
2021/07/03 07:40:10;;;;;;;3.92;2.85;;;24.70;47.80;;;;;;5100397;28;20031;-55
2021/07/03 07:42:35;;;;;;;4.72;2.67;;;24.70;47.80;;;;;;5089721;28;20031;-55
2021/07/03 07:45:02;;;;;;;4.32;3.30;;;24.70;48.10;;;;;;5086971;28;20437;-57
2021/07/03 07:47:28;;;;;;;3.92;3.15;;;24.70;48.40;;;;;;5084519;28;20510;-57
2021/07/03 07:49:54;;;;;;;3.42;2.83;;;24.60;48.30;;;;;;5101204;28;20032;-52
2021/07/03 07:52:19;;;;;;;3.35;2.60;;;24.70;48.30;;;;;;5101822;28;20020;-58
2021/07/03 07:54:45;;;;;;;3.88;2.75;;;24.70;48.40;;;;;;5085964;28;20522;-58
2021/07/03 07:57:10;;;;;;;3.67;2.95;;;24.70;48.30;;;;;;5088467;28;20364;-56
2021/07/03 07:59:36;;;;;;;4.07;3.40;;;24.70;48.00;;;;;;5085345;28;20035;-53
2021/07/03 08:02:02;;;;;;;4.20;3.42;;;24.70;47.40;;;;;;5092422;28;21201;-59
2021/07/03 08:04:27;;;;;;;3.72;3.05;;;24.60;47.00;;;;;;5064332;28;20070;-57
2021/07/03 08:06:53;;;;;;;4.07;3.10;;;24.60;47.20;;;;;;5081624;28;20458;-55
2021/07/03 08:09:18;;;;;;;4.03;2.97;;;24.60;47.60;;;;;;5084176;28;20486;-52
2021/07/03 08:11:44;;;;;;;4.20;3.00;;;24.60;47.70;;;;;;5078058;28;20040;-54
2021/07/03 08:14:10;;;;;;;4.25;3.00;;;24.60;47.40;;;;;;5092159;28;20046;-53
2021/07/03 08:16:35;;;;;;;3.33;2.75;;;24.60;47.50;;;;;;5094580;28;20103;-57
2021/07/03 08:19:01;;;;;;;3.50;2.67;;;24.60;48.20;;;;;;5090876;28;20028;-52
2021/07/03 08:21:27;;;;;;;3.28;2.63;;;24.60;48.30;;;;;;5091308;28;20030;-58
2021/07/03 08:23:52;;;;;;;3.97;2.70;;;24.60;47.90;;;;;;5103818;28;20042;-55
2021/07/03 08:26:18;;;;;;;3.22;2.55;;;24.60;47.90;;;;;;5102634;28;20106;-58
2021/07/03 08:28:44;;;;;;;3.60;2.70;;;24.70;48.00;;;;;;5093048;28;20047;-54
2021/07/03 08:31:10;;;;;;;3.85;2.65;;;24.70;48.00;;;;;;5091425;28;20040;-53
2021/07/03 08:33:35;;;;;;;3.45;2.63;;;24.70;48.00;;;;;;5091915;28;20052;-53
2021/07/03 08:36:01;;;;;;;3.47;2.40;;;24.70;48.00;;;;;;5094123;28;20128;-56
2021/07/03 08:38:27;;;;;;;3.15;2.60;;;24.70;48.00;;;;;;5104140;28;20055;-56
2021/07/03 08:40:55;;;;;;;3.35;2.53;;;24.70;48.10;;;;;;5095141;28;20019;-56
2021/07/03 08:43:20;;;;;;;3.60;2.60;;;24.70;48.10;;;;;;5095365;28;20108;-58
2021/07/03 08:45:46;;;;;;;3.72;2.63;;;24.70;48.10;;;;;;5106419;28;20693;-56
2021/07/03 08:48:19;;;;;;;3.03;2.50;;;24.70;48.10;;;;;;5093149;28;20126;-54
2021/07/03 08:50:44;;;;;;;3.20;2.47;;;24.70;48.10;;;;;;5090468;28;20040;-55
2021/07/03 08:53:10;;;;;;;3.10;2.45;;;24.70;48.20;;;;;;5090337;28;20051;-57
2021/07/03 08:55:36;;;;;;;3.00;2.53;;;24.70;48.70;;;;;;5110075;28;20031;-55
2021/07/03 08:58:05;;;;;;;3.00;2.35;;;24.70;48.20;;;;;;5099985;28;20023;-53
2021/07/03 09:00:40;;;;;;;3.47;2.47;;;24.70;48.20;;;;;;5099362;28;20044;-60
2021/07/03 09:03:11;;;;;;;3.35;2.50;;;24.70;48.20;;;;;;5088520;28;20054;-59
2021/07/03 09:05:37;;;;;;;3.65;2.55;;;24.70;48.20;;;;;;5094447;28;20019;-55
2021/07/03 09:08:05;;;;;;;3.20;2.40;;;24.70;48.20;;;;;;5089389;28;20492;-55
2021/07/03 09:10:32;;;;;;;2.70;2.15;;;24.70;48.20;;;;;;5092842;28;20117;-57
2021/07/03 09:12:59;;;;;;;3.20;2.40;;;24.70;48.20;;;;;;5080185;28;20033;-56
2021/07/03 09:15:26;;;;;;;3.30;2.40;;;24.70;48.30;;;;;;5095192;28;20020;-55
2021/07/03 09:18:00;;;;;;;3.05;2.20;;;24.70;48.20;;;;;;5088167;28;20471;-56
2021/07/03 09:20:38;;;;;;;2.80;2.35;;;24.70;48.30;;;;;;5079367;28;20124;-57
2021/07/03 09:23:13;;;;;;;3.60;2.50;;;24.70;48.30;;;;;;5096451;28;20063;-55
2021/07/03 09:25:52;;;;;;;2.70;2.33;;;24.70;48.30;;;;;;5104653;28;20142;-52
2021/07/03 09:28:19;;;;;;;2.90;2.42;;;24.70;48.30;;;;;;5082049;28;20143;-58
2021/07/03 09:30:47;;;;;;;2.75;2.22;;;24.70;48.30;;;;;;5086088;28;20092;-54
2021/07/03 09:33:42;;;;;;;3.03;2.50;;;24.70;48.30;;;;;;5094008;28;20027;-55
2021/07/03 09:36:11;;;;;;;3.00;2.30;;;24.80;48.30;;;;;;5069917;28;20382;-57
2021/07/03 09:38:48;;;;;;;3.23;2.53;;;24.80;48.30;;;;;;5067225;28;20024;-58
2021/07/03 09:41:22;;;;;;;3.20;2.40;;;24.70;48.30;;;;;;5086761;28;20035;-59
2021/07/03 09:43:48;;;;;;;3.13;2.58;;;24.70;48.30;;;;;;5088236;28;20356;-57
2021/07/03 09:46:25;;;;;;;3.03;2.50;;;24.80;48.30;;;;;;5082223;28;20054;-55
2021/07/03 09:48:53;;;;;;;3.08;2.40;;;24.80;48.30;;;;;;5097874;28;20035;-58
2021/07/03 09:51:25;;;;;;;2.92;2.35;;;24.80;48.30;;;;;;5086412;28;20198;-55
2021/07/03 09:53:51;;;;;;;3.15;2.40;;;24.80;48.30;;;;;;5085486;28;20063;-60
2021/07/03 09:56:17;;;;;;;3.35;2.40;;;24.80;48.30;;;;;;5087017;28;20030;-53
2021/07/03 09:58:44;;;;;;;2.92;2.20;;;24.80;48.30;;;;;;5082767;28;20046;-52
2021/07/03 10:01:10;;;;;;;3.05;2.17;;;24.80;48.30;;;;;;5085267;28;20051;-55
2021/07/03 10:03:39;;;;;;;3.28;2.38;;;24.80;48.30;;;;;;5089237;28;20401;-55
2021/07/03 10:06:06;;;;;;;2.58;2.10;;;24.80;48.30;;;;;;5084830;28;20070;-55
2021/07/03 10:08:37;;;;;;;4.47;2.30;;;24.80;48.30;;;;;;5084129;28;20371;-60
2021/07/03 10:11:04;;;;;;;3.00;2.20;;;24.80;48.30;;;;;;5082114;28;20081;-55
2021/07/03 10:13:33;;;;;;;3.17;2.30;;;24.80;48.20;;;;;;5082545;28;20055;-56
2021/07/03 10:16:07;;;;;;;3.10;2.40;;;24.80;48.20;;;;;;5082683;28;20027;-58
2021/07/03 10:18:33;;;;;;;3.28;2.40;;;24.80;48.20;;;;;;5079655;28;20078;-58
2021/07/03 10:21:12;;;;;;;3.03;2.42;;;24.80;48.20;;;;;;5078572;28;20036;-52
2021/07/03 10:23:40;;;;;;;;;;;24.80;48.20;;;;;;5084310;28;20023;-56
2021/07/03 10:26:05;;;;;;;3.40;2.58;;;24.80;48.20;;;;;;5083878;28;19965;-53
2021/07/03 10:28:34;;;;;;;3.55;2.22;;;24.80;48.20;;;;;;5098113;28;20059;-58
2021/07/03 10:31:08;;;;;;;3.08;2.50;;;24.80;48.20;;;;;;5085271;28;20352;-53
2021/07/03 10:33:49;;;;;;;2.97;2.35;;;24.80;48.20;;;;;;5089087;28;20035;-57
2021/07/03 10:36:31;;;;;;;2.65;2.13;;;24.80;48.20;;;;;;5065877;28;20066;-51
2021/07/03 10:39:01;;;;;;;3.60;2.60;;;24.90;48.20;;;;;;5081917;28;20012;-56
2021/07/03 10:41:35;;;;;;;3.05;2.30;;;24.80;48.10;;;;;;5083693;28;20146;-57
2021/07/03 10:44:06;;;;;;;3.00;2.30;;;24.80;48.10;;;;;;5077809;28;20056;-53
2021/07/03 10:46:34;;;;;;;2.88;2.10;;;24.80;48.10;;;;;;5085467;28;20058;-56
2021/07/03 10:49:16;;;;;;;3.00;2.38;;;24.80;48.10;;;;;;5083567;28;20050;-56
2021/07/03 10:51:43;;;;;;;3.67;2.75;;;24.80;48.10;;;;;;5083219;28;20039;-59
2021/07/03 10:54:20;;;;;;;2.88;2.20;;;24.90;48.20;;;;;;5083677;28;20202;-54
2021/07/03 10:56:51;;;;;;;2.63;2.10;;;24.90;48.20;;;;;;5084689;28;20017;-54
2021/07/03 10:59:23;;;;;;;3.05;2.20;;;24.90;48.10;;;;;;5083787;28;20455;-59
2021/07/03 11:01:51;;;;;;;3.00;2.28;;;24.90;48.10;;;;;;5078576;28;20294;-53
2021/07/03 11:04:20;;;;;;;3.30;2.30;;;24.90;48.10;;;;;;5081784;28;20038;-56
2021/07/03 11:06:51;;;;;;;2.80;2.40;;;24.90;48.10;;;;;;5083971;28;20027;-55
2021/07/03 11:09:30;;;;;;;3.15;2.00;;;24.90;48.10;;;;;;5083197;28;20040;-59
2021/07/03 11:12:09;;;;;;;2.67;2.00;;;24.90;48.10;;;;;;5084432;28;20028;-54
2021/07/03 11:14:38;;;;;;;2.80;2.10;;;24.90;48.20;;;;;;5083758;28;20287;-53
2021/07/03 11:17:04;;;;;;;2.67;2.05;;;24.90;48.20;;;;;;5081783;28;20036;-54
2021/07/03 11:19:30;;;;;;;2.95;2.20;;;24.90;48.20;;;;;;5083716;28;20020;-55
2021/07/03 11:22:14;;;;;;;2.60;2.03;;;24.90;48.20;;;;;;5083417;28;20478;-57
2021/07/03 11:24:47;;;;;;;2.80;2.20;;;24.90;48.20;;;;;;5082770;28;20036;-53
2021/07/03 11:27:26;;;;;;;2.95;2.10;;;24.90;48.10;;;;;;5083082;28;20028;-58
2021/07/03 11:29:52;;;;;;;2.88;2.10;;;24.90;48.20;;;;;;5081635;28;20024;-58
2021/07/03 11:32:17;;;;;;;2.60;2.10;;;24.90;48.20;;;;;;5080954;28;20044;-58
2021/07/03 11:34:58;;;;;;;2.80;2.10;;;24.90;48.20;;;;;;5080773;28;20036;-56
2021/07/03 11:37:26;;;;;;;2.47;2.00;;;24.90;48.20;;;;;;5084342;28;20028;-54
2021/07/03 11:39:53;;;;;;;2.50;2.00;;;24.90;48.20;;;;;;5079751;28;20071;-54
2021/07/03 11:42:26;;;;;;;2.53;2.03;;;24.90;48.20;;;;;;5084008;28;20112;-57
2021/07/03 11:44:52;;;;;;;2.80;2.10;;;24.90;48.20;;;;;;5075271;28;20031;-54
2021/07/03 11:47:18;;;;;;;2.75;2.05;;;24.90;48.20;;;;;;5075361;28;20040;-56
2021/07/03 11:49:44;;;;;;;2.95;2.35;;;24.90;48.20;;;;;;5082825;28;20036;-54
2021/07/03 11:52:09;;;;;;;2.70;2.05;;;24.90;48.20;;;;;;5085258;28;20434;-56
2021/07/03 11:54:35;;;;;;;2.38;1.85;;;24.90;48.20;;;;;;5082362;28;20024;-58
2021/07/03 11:57:01;;;;;;;2.45;2.00;;;24.90;48.30;;;;;;5083377;28;20020;-58
2021/07/03 11:59:28;;;;;;;2.55;2.08;;;25.00;48.30;;;;;;5082807;28;20170;-58
2021/07/03 12:01:54;;;;;;;3.17;2.15;;;25.00;48.30;;;;;;5080330;28;20043;-57
2021/07/03 12:04:20;;;;;;;2.60;2.10;;;24.90;48.30;;;;;;5087118;28;20028;-54
2021/07/03 12:06:56;;;;;;;3.15;2.30;;;24.90;48.80;;;;;;5086209;28;20031;-61
2021/07/03 12:09:21;;;;;;;2.72;1.98;;;24.90;48.30;;;;;;5087013;28;20478;-57
2021/07/03 12:11:54;;;;;;;2.90;2.22;;;25.00;48.30;;;;;;5087753;28;20046;-56
2021/07/03 12:14:20;;;;;;;2.78;2.00;;;24.90;48.30;;;;;;5098094;28;20136;-59
2021/07/03 12:16:55;;;;;;;2.60;1.98;;;25.00;48.40;;;;;;5084216;28;20199;-59
2021/07/03 12:19:21;;;;;;;2.45;2.00;;;25.00;48.40;;;;;;5086555;28;20024;-58
2021/07/03 12:21:47;;;;;;;2.83;2.15;;;25.00;48.40;;;;;;5084536;28;20501;-57
2021/07/03 12:24:12;;;;;;;2.83;2.17;;;25.00;48.40;;;;;;5081186;28;20036;-57
2021/07/03 12:26:46;;;;;;;3.22;1.95;;;25.00;48.40;;;;;;5087504;28;20039;-61
2021/07/03 12:29:26;;;;;;;2.83;2.13;;;25.00;48.30;;;;;;5087275;28;20749;-52
2021/07/03 12:31:52;;;;;;;2.60;1.98;;;25.00;48.30;;;;;;5087660;28;20065;-60
2021/07/03 12:34:25;;;;;;;2.70;2.13;;;25.00;48.30;;;;;;5091438;28;20134;-58
2021/07/03 12:36:53;;;;;;;2.80;2.10;;;25.00;48.60;;;;;;5087258;28;20032;-55
2021/07/03 12:39:21;;;;;;;3.20;2.15;;;25.00;48.90;;;;;;5086102;28;20391;-57
2021/07/03 12:41:54;;;;;;;2.60;2.10;;;25.00;48.70;;;;;;5085631;28;20129;-60
2021/07/03 12:44:34;;;;;;;2.90;2.00;;;25.00;48.60;;;;;;5086216;28;20024;-57
2021/07/03 12:47:01;;;;;;;2.83;2.00;;;25.10;48.60;;;;;;5096299;28;20311;-56
2021/07/03 12:49:41;;;;;;;2.92;2.20;;;25.10;48.50;;;;;;5084485;28;20067;-61